sensor_id;sensor_type;location;lat;lon;timestamp;pressure;altitude;pressure_sealevel;temperature;humidity
12626;BME280;6378;42.684;23.372;2022-12-15T00:00:39;94271.88;;;2.80;100.00
12626;BME280;6378;42.684;23.372;2022-12-15T00:03:23;94274.38;;;2.85;100.00
12626;BME280;6378;42.684;23.372;2022-12-15T00:06:07;94251.53;;;2.84;100.00
12626;BME280;6378;42.684;23.372;2022-12-15T00:08:51;94262.63;;;2.95;100.00
12626;BME280;6378;42.684;23.372;2022-12-15T00:11:35;94241.84;;;2.88;100.00
12626;BME280;6378;42.684;23.372;2022-12-15T00:14:19;94287.81;;;2.97;100.00
12626;BME280;6378;42.684;23.372;2022-12-15T00:17:03;94272.97;;;2.96;100.00
12626;BME280;6378;42.684;23.372;2022-12-15T00:19:47;94298.78;;;2.87;100.00
12626;BME280;6378;42.684;23.372;2022-12-15T00:22:31;94305.63;;;2.88;100.00
12626;BME280;6378;42.684;23.372;2022-12-15T00:25:15;94323.31;;;2.93;100.00
12626;BME280;6378;42.684;23.372;2022-12-15T00:27:59;94329.88;;;2.87;100.00
12626;BME280;6378;42.684;23.372;2022-12-15T00:30:43;94349.88;;;2.93;100.00
12626;BME280;6378;42.684;23.372;2022-12-15T00:33:27;94361.59;;;3.00;100.00
12626;BME280;6378;42.684;23.372;2022-12-15T00:36:11;94354.41;;;3.10;100.00
12626;BME280;6378;42.684;23.372;2022-12-15T00:38:55;94330.00;;;3.16;100.00
12626;BME280;6378;42.684;23.372;2022-12-15T00:41:20;94338.75;;;3.25;100.00
12626;BME280;6378;42.684;23.372;2022-12-15T00:43:46;94342.66;;;3.19;100.00
12626;BME280;6378;42.684;23.372;2022-12-15T00:46:11;94311.69;;;3.15;100.00
12626;BME280;6378;42.684;23.372;2022-12-15T00:48:56;94301.53;;;3.17;100.00
12626;BME280;6378;42.684;23.372;2022-12-15T00:51:21;94298.72;;;3.13;100.00
12626;BME280;6378;42.684;23.372;2022-12-15T00:54:05;94270.75;;;2.98;100.00
12626;BME280;6378;42.684;23.372;2022-12-15T00:56:49;94283.44;;;3.01;100.00
12626;BME280;6378;42.684;23.372;2022-12-15T00:59:33;94274.03;;;2.95;100.00
12626;BME280;6378;42.684;23.372;2022-12-15T01:02:17;94284.69;;;2.87;100.00
12626;BME280;6378;42.684;23.372;2022-12-15T01:05:01;94273.72;;;2.88;100.00
12626;BME280;6378;42.684;23.372;2022-12-15T01:07:45;94270.47;;;2.83;100.00
12626;BME280;6378;42.684;23.372;2022-12-15T01:10:29;94283.28;;;2.89;100.00
12626;BME280;6378;42.684;23.372;2022-12-15T01:13:14;94272.66;;;2.89;100.00
12626;BME280;6378;42.684;23.372;2022-12-15T01:15:58;94257.97;;;2.75;100.00
12626;BME280;6378;42.684;23.372;2022-12-15T01:18:42;94266.44;;;2.68;100.00
12626;BME280;6378;42.684;23.372;2022-12-15T01:21:26;94272.50;;;2.60;100.00
12626;BME280;6378;42.684;23.372;2022-12-15T01:23:52;94283.13;;;2.60;100.00
12626;BME280;6378;42.684;23.372;2022-12-15T01:26:17;94272.50;;;2.60;100.00
12626;BME280;6378;42.684;23.372;2022-12-15T01:28:43;94261.44;;;2.67;100.00
12626;BME280;6378;42.684;23.372;2022-12-15T01:31:10;94267.19;;;2.77;100.00
12626;BME280;6378;42.684;23.372;2022-12-15T01:33:35;94243.91;;;2.66;100.00
12626;BME280;6378;42.684;23.372;2022-12-15T01:36:02;94283.59;;;2.88;100.00
12626;BME280;6378;42.684;23.372;2022-12-15T01:38:28;94264.56;;;2.69;100.00
12626;BME280;6378;42.684;23.372;2022-12-15T01:41:00;94256.59;;;2.69;100.00
12626;BME280;6378;42.684;23.372;2022-12-15T01:43:32;94280.63;;;2.81;100.00
12626;BME280;6378;42.684;23.372;2022-12-15T01:46:09;94277.19;;;2.89;100.00
12626;BME280;6378;42.684;23.372;2022-12-15T01:48:59;94253.13;;;2.85;100.00
12626;BME280;6378;42.684;23.372;2022-12-15T01:51:34;94272.47;;;2.94;100.00
12626;BME280;6378;42.684;23.372;2022-12-15T01:54:05;94262.31;;;3.05;100.00
12626;BME280;6378;42.684;23.372;2022-12-15T01:56:33;94251.34;;;3.07;100.00
12626;BME280;6378;42.684;23.372;2022-12-15T01:59:02;94242.72;;;3.18;100.00
12626;BME280;6378;42.684;23.372;2022-12-15T02:01:28;94235.59;;;3.01;100.00
12626;BME280;6378;42.684;23.372;2022-12-15T02:03:53;94216.06;;;2.89;100.00
12626;BME280;6378;42.684;23.372;2022-12-15T02:06:20;94200.09;;;2.89;100.00
12626;BME280;6378;42.684;23.372;2022-12-15T02:08:48;94200.63;;;2.65;100.00
12626;BME280;6378;42.684;23.372;2022-12-15T02:21:28;94197.78;;;2.87;100.00
12626;BME280;6378;42.684;23.372;2022-12-15T02:32:09;94178.25;;;2.83;100.00
12626;BME280;6378;42.684;23.372;2022-12-15T02:34:46;94171.03;;;2.84;100.00
12626;BME280;6378;42.684;23.372;2022-12-15T02:37:27;94182.50;;;2.67;100.00
12626;BME280;6378;42.684;23.372;2022-12-15T02:39:55;94187.03;;;2.67;100.00
12626;BME280;6378;42.684;23.372;2022-12-15T02:42:21;94172.66;;;2.68;100.00
12626;BME280;6378;42.684;23.372;2022-12-15T03:01:31;94215.38;;;3.09;100.00
12626;BME280;6378;42.684;23.372;2022-12-15T03:04:01;94206.63;;;3.09;100.00
12626;BME280;6378;42.684;23.372;2022-12-15T03:06:27;94212.28;;;3.07;100.00
12626;BME280;6378;42.684;23.372;2022-12-15T03:08:52;94224.50;;;3.67;100.00
12626;BME280;6378;42.684;23.372;2022-12-15T03:11:18;94233.25;;;3.76;100.00
12626;BME280;6378;42.684;23.372;2022-12-15T03:13:43;94207.78;;;3.66;100.00
12626;BME280;6378;42.684;23.372;2022-12-15T03:16:09;94201.81;;;3.40;100.00
12626;BME280;6378;42.684;23.372;2022-12-15T03:18:34;94215.41;;;3.38;100.00
12626;BME280;6378;42.684;23.372;2022-12-15T03:20:59;94213.47;;;3.27;100.00
12626;BME280;6378;42.684;23.372;2022-12-15T03:23:25;94195.47;;;3.24;100.00
12626;BME280;6378;42.684;23.372;2022-12-15T03:25:50;94192.72;;;3.03;100.00
12626;BME280;6378;42.684;23.372;2022-12-15T03:28:16;94187.56;;;3.07;100.00
12626;BME280;6378;42.684;23.372;2022-12-15T03:30:42;94201.63;;;3.07;100.00
12626;BME280;6378;42.684;23.372;2022-12-15T03:33:07;94212.69;;;3.18;100.00
12626;BME280;6378;42.684;23.372;2022-12-15T03:35:33;94207.84;;;3.20;100.00
12626;BME280;6378;42.684;23.372;2022-12-15T03:37:58;94194.88;;;3.10;100.00
12626;BME280;6378;42.684;23.372;2022-12-15T03:40:23;94210.56;;;3.02;100.00
12626;BME280;6378;42.684;23.372;2022-12-15T03:42:49;94200.25;;;3.01;100.00
12626;BME280;6378;42.684;23.372;2022-12-15T03:47:40;94192.00;;;2.85;100.00
12626;BME280;6378;42.684;23.372;2022-12-15T03:50:06;94199.31;;;2.88;100.00
12626;BME280;6378;42.684;23.372;2022-12-15T03:52:33;94229.66;;;2.96;100.00
12626;BME280;6378;42.684;23.372;2022-12-15T03:54:58;94231.84;;;3.02;100.00
12626;BME280;6378;42.684;23.372;2022-12-15T03:57:23;94240.91;;;3.01;100.00
12626;BME280;6378;42.684;23.372;2022-12-15T03:59:49;94233.38;;;3.03;100.00
12626;BME280;6378;42.684;23.372;2022-12-15T04:02:15;94246.31;;;3.14;100.00
12626;BME280;6378;42.684;23.372;2022-12-15T04:04:40;94248.97;;;3.14;100.00
12626;BME280;6378;42.684;23.372;2022-12-15T04:07:05;94257.44;;;3.16;100.00
12626;BME280;6378;42.684;23.372;2022-12-15T04:09:31;94265.84;;;3.18;100.00
12626;BME280;6378;42.684;23.372;2022-12-15T04:11:56;94249.59;;;3.19;100.00
12626;BME280;6378;42.684;23.372;2022-12-15T04:14:22;94254.63;;;3.12;100.00
12626;BME280;6378;42.684;23.372;2022-12-15T04:16:47;94269.75;;;3.29;100.00
12626;BME280;6378;42.684;23.372;2022-12-15T04:19:13;94272.09;;;3.30;100.00
12626;BME280;6378;42.684;23.372;2022-12-15T04:21:57;94259.72;;;3.34;100.00
12626;BME280;6378;42.684;23.372;2022-12-15T04:24:26;94273.63;;;3.40;100.00
12626;BME280;6378;42.684;23.372;2022-12-15T04:27:10;94268.47;;;3.35;100.00
12626;BME280;6378;42.684;23.372;2022-12-15T04:29:53;94259.38;;;3.44;100.00
12626;BME280;6378;42.684;23.372;2022-12-15T04:32:37;94266.03;;;3.59;100.00
12626;BME280;6378;42.684;23.372;2022-12-15T04:35:21;94252.25;;;3.57;100.00
12626;BME280;6378;42.684;23.372;2022-12-15T04:38:05;94246.69;;;3.50;100.00
12626;BME280;6378;42.684;23.372;2022-12-15T04:40:49;94250.75;;;3.47;100.00
12626;BME280;6378;42.684;23.372;2022-12-15T04:43:33;94190.78;;;3.21;100.00
12626;BME280;6378;42.684;23.372;2022-12-15T04:46:17;94241.50;;;3.54;100.00
12626;BME280;6378;42.684;23.372;2022-12-15T04:49:01;94235.53;;;3.57;100.00
12626;BME280;6378;42.684;23.372;2022-12-15T04:51:45;94249.94;;;3.56;100.00
12626;BME280;6378;42.684;23.372;2022-12-15T04:54:29;94242.88;;;3.60;100.00
12626;BME280;6378;42.684;23.372;2022-12-15T04:57:13;94255.69;;;3.66;100.00
12626;BME280;6378;42.684;23.372;2022-12-15T04:59:57;94260.41;;;3.61;100.00
12626;BME280;6378;42.684;23.372;2022-12-15T05:02:41;94267.25;;;3.62;100.00
12626;BME280;6378;42.684;23.372;2022-12-15T05:05:25;94287.47;;;3.63;100.00
12626;BME280;6378;42.684;23.372;2022-12-15T05:08:09;94308.91;;;3.66;100.00
12626;BME280;6378;42.684;23.372;2022-12-15T05:10:53;94294.31;;;3.72;100.00
12626;BME280;6378;42.684;23.372;2022-12-15T05:13:37;94290.56;;;3.73;100.00
12626;BME280;6378;42.684;23.372;2022-12-15T05:16:21;94296.78;;;3.77;100.00
12626;BME280;6378;42.684;23.372;2022-12-15T05:19:05;94311.97;;;3.77;100.00
12626;BME280;6378;42.684;23.372;2022-12-15T05:21:49;94323.88;;;3.79;100.00
12626;BME280;6378;42.684;23.372;2022-12-15T05:24:33;94350.75;;;3.86;100.00
12626;BME280;6378;42.684;23.372;2022-12-15T05:27:17;94345.25;;;3.91;100.00
12626;BME280;6378;42.684;23.372;2022-12-15T05:30:01;94371.22;;;4.03;100.00
12626;BME280;6378;42.684;23.372;2022-12-15T05:32:44;94368.88;;;4.02;100.00
12626;BME280;6378;42.684;23.372;2022-12-15T05:35:10;94356.94;;;4.08;100.00
12626;BME280;6378;42.684;23.372;2022-12-15T05:37:35;94372.28;;;4.11;100.00
12626;BME280;6378;42.684;23.372;2022-12-15T05:40:01;94372.28;;;4.11;100.00
12626;BME280;6378;42.684;23.372;2022-12-15T05:42:26;94383.09;;;4.14;100.00
12626;BME280;6378;42.684;23.372;2022-12-15T05:44:51;94382.91;;;4.19;100.00
12626;BME280;6378;42.684;23.372;2022-12-15T05:47:17;94393.03;;;4.26;100.00
12626;BME280;6378;42.684;23.372;2022-12-15T05:49:42;94398.72;;;4.24;100.00
12626;BME280;6378;42.684;23.372;2022-12-15T05:52:08;94406.66;;;4.33;100.00
12626;BME280;6378;42.684;23.372;2022-12-15T05:54:33;94400.06;;;4.30;100.00
12626;BME280;6378;42.684;23.372;2022-12-15T05:56:59;94428.22;;;4.40;100.00
12626;BME280;6378;42.684;23.372;2022-12-15T05:59:24;94443.91;;;4.42;100.00
12626;BME280;6378;42.684;23.372;2022-12-15T06:01:50;94428.22;;;4.49;100.00
12626;BME280;6378;42.684;23.372;2022-12-15T06:04:15;94421.34;;;4.39;100.00
12626;BME280;6378;42.684;23.372;2022-12-15T06:06:41;94431.84;;;4.35;100.00
12626;BME280;6378;42.684;23.372;2022-12-15T06:09:07;94439.53;;;4.37;100.00
12626;BME280;6378;42.684;23.372;2022-12-15T06:11:34;94439.34;;;4.42;100.00
12626;BME280;6378;42.684;23.372;2022-12-15T06:13:59;94396.53;;;4.18;100.00
12626;BME280;6378;42.684;23.372;2022-12-15T06:16:25;94454.81;;;4.57;100.00
12626;BME280;6378;42.684;23.372;2022-12-15T06:18:56;94435.91;;;4.42;100.00
12626;BME280;6378;42.684;23.372;2022-12-15T06:21:31;94467.03;;;4.58;100.00
12626;BME280;6378;42.684;23.372;2022-12-15T06:23:57;94460.69;;;4.71;100.00
12626;BME280;6378;42.684;23.372;2022-12-15T06:26:31;94460.69;;;4.71;100.00
12626;BME280;6378;42.684;23.372;2022-12-15T06:28:59;94482.63;;;4.77;100.00
12626;BME280;6378;42.684;23.372;2022-12-15T06:31:27;94482.97;;;4.67;100.00
12626;BME280;6378;42.684;23.372;2022-12-15T06:33:53;94462.63;;;4.62;100.00
12626;BME280;6378;42.684;23.372;2022-12-15T06:36:19;94490.63;;;4.77;100.00
12626;BME280;6378;42.684;23.372;2022-12-15T06:38:45;94476.38;;;4.73;100.00
12626;BME280;6378;42.684;23.372;2022-12-15T06:41:13;94413.44;;;4.22;100.00
12626;BME280;6378;42.684;23.372;2022-12-15T06:43:40;94504.81;;;4.90;100.00
12626;BME280;6378;42.684;23.372;2022-12-15T06:46:05;94504.81;;;4.90;100.00
12626;BME280;6378;42.684;23.372;2022-12-15T06:48:31;94475.06;;;4.79;100.00
12626;BME280;6378;42.684;23.372;2022-12-15T06:51:05;94501.66;;;4.96;100.00
12626;BME280;6378;42.684;23.372;2022-12-15T06:53:34;94499.75;;;4.97;100.00
12626;BME280;6378;42.684;23.372;2022-12-15T06:56:01;94501.41;;;5.10;100.00
12626;BME280;6378;42.684;23.372;2022-12-15T06:58:28;94504.66;;;5.15;100.00
12626;BME280;6378;42.684;23.372;2022-12-15T07:00:53;94519.03;;;5.23;100.00
12626;BME280;6378;42.684;23.372;2022-12-15T07:03:19;94522.59;;;5.36;100.00
12626;BME280;6378;42.684;23.372;2022-12-15T07:05:45;94508.66;;;5.30;100.00
12626;BME280;6378;42.684;23.372;2022-12-15T07:08:12;94530.59;;;5.36;100.00
12626;BME280;6378;42.684;23.372;2022-12-15T07:10:39;94533.84;;;5.41;100.00
12626;BME280;6378;42.684;23.372;2022-12-15T07:13:05;94534.28;;;5.43;100.00
12626;BME280;6378;42.684;23.372;2022-12-15T07:15:32;94526.28;;;5.43;100.00
12626;BME280;6378;42.684;23.372;2022-12-15T07:17:57;94544.66;;;5.86;100.00
12626;BME280;6378;42.684;23.372;2022-12-15T07:20:23;94552.84;;;5.90;100.00
12626;BME280;6378;42.684;23.372;2022-12-15T07:22:52;94542.00;;;5.86;100.00
12626;BME280;6378;42.684;23.372;2022-12-15T07:25:17;94553.75;;;5.94;100.00
12626;BME280;6378;42.684;23.372;2022-12-15T07:27:44;94485.66;;;5.58;100.00
12626;BME280;6378;42.684;23.372;2022-12-15T07:30:10;94550.16;;;6.11;100.00
12626;BME280;6378;42.684;23.372;2022-12-15T07:32:36;94557.78;;;6.00;100.00
12626;BME280;6378;42.684;23.372;2022-12-15T07:35:02;94558.81;;;6.07;100.00
12626;BME280;6378;42.684;23.372;2022-12-15T07:37:29;94573.81;;;6.00;100.00
12626;BME280;6378;42.684;23.372;2022-12-15T07:39:55;94571.56;;;6.02;100.00
12626;BME280;6378;42.684;23.372;2022-12-15T07:42:20;94570.16;;;6.04;100.00
12626;BME280;6378;42.684;23.372;2022-12-15T07:44:46;94576.00;;;5.98;100.00
12626;BME280;6378;42.684;23.372;2022-12-15T07:47:11;94578.25;;;5.96;100.00
12626;BME280;6378;42.684;23.372;2022-12-15T07:49:36;94581.03;;;5.99;100.00
12626;BME280;6378;42.684;23.372;2022-12-15T07:52:02;94579.59;;;6.02;100.00
12626;BME280;6378;42.684;23.372;2022-12-15T07:54:28;94578.47;;;6.03;100.00
12626;BME280;6378;42.684;23.372;2022-12-15T07:56:54;94583.63;;;6.08;100.00
12626;BME280;6378;42.684;23.372;2022-12-15T07:59:19;94596.00;;;6.13;100.00
12626;BME280;6378;42.684;23.372;2022-12-15T08:01:45;94605.69;;;6.17;100.00
12626;BME280;6378;42.684;23.372;2022-12-15T08:04:10;94606.59;;;6.21;100.00
12626;BME280;6378;42.684;23.372;2022-12-15T08:06:36;94611.41;;;6.16;100.00
12626;BME280;6378;42.684;23.372;2022-12-15T08:09:01;94615.75;;;6.20;100.00
12626;BME280;6378;42.684;23.372;2022-12-15T08:11:27;94604.72;;;6.22;100.00
12626;BME280;6378;42.684;23.372;2022-12-15T08:13:52;94613.63;;;6.26;100.00
12626;BME280;6378;42.684;23.372;2022-12-15T08:16:18;94607.75;;;6.20;100.00
12626;BME280;6378;42.684;23.372;2022-12-15T08:18:44;94609.75;;;6.23;100.00
12626;BME280;6378;42.684;23.372;2022-12-15T08:21:10;94588.50;;;6.06;100.00
12626;BME280;6378;42.684;23.372;2022-12-15T08:23:36;94595.81;;;6.18;100.00
12626;BME280;6378;42.684;23.372;2022-12-15T08:26:07;94622.81;;;6.37;100.00
12626;BME280;6378;42.684;23.372;2022-12-15T08:28:35;94624.78;;;6.28;100.00
12626;BME280;6378;42.684;23.372;2022-12-15T08:31:04;94641.97;;;6.60;100.00
12626;BME280;6378;42.684;23.372;2022-12-15T08:33:30;94626.13;;;6.55;100.00
12626;BME280;6378;42.684;23.372;2022-12-15T08:35:57;94643.91;;;6.50;100.00
12626;BME280;6378;42.684;23.372;2022-12-15T08:38:23;94639.91;;;6.44;100.00
12626;BME280;6378;42.684;23.372;2022-12-15T08:40:48;94637.25;;;6.44;100.00
12626;BME280;6378;42.684;23.372;2022-12-15T08:43:14;94637.69;;;6.46;100.00
12626;BME280;6378;42.684;23.372;2022-12-15T08:45:39;94637.88;;;6.41;100.00
12626;BME280;6378;42.684;23.372;2022-12-15T08:48:05;94643.19;;;6.29;100.00
12626;BME280;6378;42.684;23.372;2022-12-15T08:50:30;94644.09;;;6.33;100.00
12626;BME280;6378;42.684;23.372;2022-12-15T08:52:56;94624.94;;;6.11;100.00
12626;BME280;6378;42.684;23.372;2022-12-15T08:55:21;94650.50;;;6.20;100.00
12626;BME280;6378;42.684;23.372;2022-12-15T08:57:48;94656.41;;;6.05;100.00
12626;BME280;6378;42.684;23.372;2022-12-15T09:00:13;94652.38;;;5.99;100.00
12626;BME280;6378;42.684;23.372;2022-12-15T09:02:40;94639.88;;;5.91;100.00
12626;BME280;6378;42.684;23.372;2022-12-15T09:05:05;94649.47;;;5.83;100.00
12626;BME280;6378;42.684;23.372;2022-12-15T09:07:31;94644.28;;;5.87;100.00
12626;BME280;6378;42.684;23.372;2022-12-15T09:09:57;94641.94;;;5.77;100.00
12626;BME280;6378;42.684;23.372;2022-12-15T09:12:22;94643.19;;;5.79;100.00
12626;BME280;6378;42.684;23.372;2022-12-15T09:14:48;94640.53;;;5.79;100.00
12626;BME280;6378;42.684;23.372;2022-12-15T09:17:13;94630.50;;;5.76;100.00
12626;BME280;6378;42.684;23.372;2022-12-15T09:19:39;94645.66;;;5.93;100.00
12626;BME280;6378;42.684;23.372;2022-12-15T09:22:05;94647.72;;;5.87;100.00
12626;BME280;6378;42.684;23.372;2022-12-15T09:24:32;94641.13;;;5.85;100.00
12626;BME280;6378;42.684;23.372;2022-12-15T09:26:57;94645.53;;;5.89;100.00
12626;BME280;6378;42.684;23.372;2022-12-15T09:29:22;94652.28;;;5.87;100.00
12626;BME280;6378;42.684;23.372;2022-12-15T09:31:48;94647.88;;;5.91;100.00
12626;BME280;6378;42.684;23.372;2022-12-15T09:34:14;94650.56;;;5.91;100.00
12626;BME280;6378;42.684;23.372;2022-12-15T09:36:42;94665.16;;;6.14;100.00
12626;BME280;6378;42.684;23.372;2022-12-15T09:41:57;94665.41;;;6.00;100.00
12626;BME280;6378;42.684;23.372;2022-12-15T09:44:24;94662.88;;;6.04;100.00
12626;BME280;6378;42.684;23.372;2022-12-15T09:49:57;94651.19;;;6.08;100.00
12626;BME280;6378;42.684;23.372;2022-12-15T09:52:31;94666.53;;;6.20;100.00
12626;BME280;6378;42.684;23.372;2022-12-15T09:54:58;94660.78;;;6.30;100.00
12626;BME280;6378;42.684;23.372;2022-12-15T09:57:36;94676.09;;;6.00;100.00
12626;BME280;6378;42.684;23.372;2022-12-15T10:05:54;94656.66;;;6.33;100.00
12626;BME280;6378;42.684;23.372;2022-12-15T10:08:22;94655.38;;;6.39;100.00
12626;BME280;6378;42.684;23.372;2022-12-15T10:10:54;94643.41;;;6.36;100.00
12626;BME280;6378;42.684;23.372;2022-12-15T10:13:47;94653.72;;;6.46;100.00
12626;BME280;6378;42.684;23.372;2022-12-15T10:16:32;94641.72;;;6.52;100.00
12626;BME280;6378;42.684;23.372;2022-12-15T10:19:28;94652.09;;;6.54;100.00
12626;BME280;6378;42.684;23.372;2022-12-15T10:21:56;94646.19;;;6.61;100.00
12626;BME280;6378;42.684;23.372;2022-12-15T10:24:22;94636.56;;;6.47;100.00
12626;BME280;6378;42.684;23.372;2022-12-15T10:27:01;94651.41;;;6.57;100.00
12626;BME280;6378;42.684;23.372;2022-12-15T10:29:45;94659.25;;;6.62;100.00
12626;BME280;6378;42.684;23.372;2022-12-15T10:32:41;94658.13;;;6.63;100.00
12626;BME280;6378;42.684;23.372;2022-12-15T10:35:29;94672.16;;;6.60;100.00
12626;BME280;6378;42.684;23.372;2022-12-15T10:37:57;94665.38;;;6.63;100.00
12626;BME280;6378;42.684;23.372;2022-12-15T10:40:46;94669.16;;;6.62;100.00
12626;BME280;6378;42.684;23.372;2022-12-15T10:43:33;94669.63;;;6.64;100.00
12626;BME280;6378;42.684;23.372;2022-12-15T10:48:31;94639.94;;;6.57;100.00
12626;BME280;6378;42.684;23.372;2022-12-15T10:51:29;94654.47;;;6.68;100.00
12626;BME280;6378;42.684;23.372;2022-12-15T10:56:26;94657.16;;;6.80;100.00
12626;BME280;6378;42.684;23.372;2022-12-15T10:58:56;94648.47;;;6.71;100.00
12626;BME280;6378;42.684;23.372;2022-12-15T11:01:30;94670.34;;;6.85;100.00
12626;BME280;6378;42.684;23.372;2022-12-15T11:03:56;94662.56;;;6.92;100.00
12626;BME280;6378;42.684;23.372;2022-12-15T11:06:30;94660.78;;;6.96;100.00
12626;BME280;6378;42.684;23.372;2022-12-15T11:09:07;94669.97;;;7.07;100.00
12626;BME280;6378;42.684;23.372;2022-12-15T11:11:34;94665.94;;;7.01;100.00
12626;BME280;6378;42.684;23.372;2022-12-15T11:14:23;94664.84;;;7.14;100.00
12626;BME280;6378;42.684;23.372;2022-12-15T11:16:56;94649.69;;;7.18;100.00
12626;BME280;6378;42.684;23.372;2022-12-15T11:19:52;94647.56;;;7.12;100.00
12626;BME280;6378;42.684;23.372;2022-12-15T11:22:42;94664.88;;;7.26;100.00
12626;BME280;6378;42.684;23.372;2022-12-15T11:25:30;94653.25;;;7.34;100.00
12626;BME280;6378;42.684;23.372;2022-12-15T11:27:59;94662.38;;;7.09;100.00
12626;BME280;6378;42.684;23.372;2022-12-15T11:30:33;94661.41;;;7.26;100.00
12626;BME280;6378;42.684;23.372;2022-12-15T11:33:02;94660.72;;;7.29;100.00
12626;BME280;6378;42.684;23.372;2022-12-15T11:40:33;94674.25;;;7.45;100.00
12626;BME280;6378;42.684;23.372;2022-12-15T11:48:13;94674.28;;;7.57;100.00
12626;BME280;6378;42.684;23.372;2022-12-15T11:50:52;94673.03;;;7.42;100.00
12626;BME280;6378;42.684;23.372;2022-12-15T11:53:40;94673.38;;;7.65;100.00
12626;BME280;6378;42.684;23.372;2022-12-15T12:12:46;94686.78;;;7.77;100.00
12626;BME280;6378;42.684;23.372;2022-12-15T12:18:16;94663.97;;;7.83;100.00
12626;BME280;6378;42.684;23.372;2022-12-15T12:20:51;94669.47;;;7.74;100.00
12626;BME280;6378;42.684;23.372;2022-12-15T12:23:30;94691.66;;;7.99;100.00
12626;BME280;6378;42.684;23.372;2022-12-15T12:28:46;94686.81;;;8.29;100.00
12626;BME280;6378;42.684;23.372;2022-12-15T12:34:09;94698.78;;;8.32;100.00
12626;BME280;6378;42.684;23.372;2022-12-15T12:36:39;94707.22;;;8.46;100.00
12626;BME280;6378;42.684;23.372;2022-12-15T12:39:15;94711.69;;;8.54;100.00
12626;BME280;6378;42.684;23.372;2022-12-15T12:41:58;94715.72;;;8.48;100.00
12626;BME280;6378;42.684;23.372;2022-12-15T12:44:32;94690.94;;;8.26;100.00
12626;BME280;6378;42.684;23.372;2022-12-15T12:47:04;94696.19;;;8.23;100.00
12626;BME280;6378;42.684;23.372;2022-12-15T12:49:44;94717.88;;;8.42;100.00
12626;BME280;6378;42.684;23.372;2022-12-15T12:52:19;94713.75;;;8.45;100.00
12626;BME280;6378;42.684;23.372;2022-12-15T12:55:20;94740.97;;;9.58;100.00
12626;BME280;6378;42.684;23.372;2022-12-15T12:57:48;94733.72;;;9.15;100.00
12626;BME280;6378;42.684;23.372;2022-12-15T13:00:25;94706.88;;;8.87;100.00
12626;BME280;6378;42.684;23.372;2022-12-15T13:05:32;94727.47;;;8.83;100.00
12626;BME280;6378;42.684;23.372;2022-12-15T13:16:23;94721.72;;;8.69;100.00
12626;BME280;6378;42.684;23.372;2022-12-15T13:19:04;94730.34;;;8.90;100.00
12626;BME280;6378;42.684;23.372;2022-12-15T13:26:44;94741.06;;;8.62;100.00
12626;BME280;6378;42.684;23.372;2022-12-15T13:29:20;94743.34;;;8.48;100.00
12626;BME280;6378;42.684;23.372;2022-12-15T13:31:51;94737.84;;;8.57;100.00
12626;BME280;6378;42.684;23.372;2022-12-15T13:38:03;94739.00;;;8.07;100.00
12626;BME280;6378;42.684;23.372;2022-12-15T13:45:58;94751.97;;;7.81;100.00
12626;BME280;6378;42.684;23.372;2022-12-15T13:51:34;94764.69;;;7.84;100.00
12626;BME280;6378;42.684;23.372;2022-12-15T13:54:12;94768.94;;;8.09;100.00
12626;BME280;6378;42.684;23.372;2022-12-15T13:57:02;94766.25;;;8.09;100.00
12626;BME280;6378;42.684;23.372;2022-12-15T14:03:09;94760.22;;;8.00;100.00
12626;BME280;6378;42.684;23.372;2022-12-15T14:05:56;94773.16;;;7.98;100.00
12626;BME280;6378;42.684;23.372;2022-12-15T14:08:29;94753.06;;;7.92;100.00
12626;BME280;6378;42.684;23.372;2022-12-15T14:10:57;94778.31;;;8.03;100.00
12626;BME280;6378;42.684;23.372;2022-12-15T14:13:38;94780.97;;;8.03;100.00
12626;BME280;6378;42.684;23.372;2022-12-15T14:16:33;94784.91;;;8.06;100.00
12626;BME280;6378;42.684;23.372;2022-12-15T14:22:40;94793.16;;;8.01;100.00
12626;BME280;6378;42.684;23.372;2022-12-15T14:29:02;94801.75;;;7.94;100.00
12626;BME280;6378;42.684;23.372;2022-12-15T14:31:35;94807.59;;;8.20;100.00
12626;BME280;6378;42.684;23.372;2022-12-15T14:34:18;94821.00;;;8.57;100.00
12626;BME280;6378;42.684;23.372;2022-12-15T14:36:45;94818.44;;;8.48;100.00
12626;BME280;6378;42.684;23.372;2022-12-15T14:39:45;94821.09;;;8.60;100.00
12626;BME280;6378;42.684;23.372;2022-12-15T14:42:25;94791.06;;;8.43;100.00
12626;BME280;6378;42.684;23.372;2022-12-15T14:45:19;94824.59;;;8.49;100.00
12626;BME280;6378;42.684;23.372;2022-12-15T14:48:13;94824.94;;;8.35;100.00
12626;BME280;6378;42.684;23.372;2022-12-15T14:54:50;94829.47;;;8.10;100.00
12626;BME280;6378;42.684;23.372;2022-12-15T14:57:40;94830.78;;;8.04;100.00
12626;BME280;6378;42.684;23.372;2022-12-15T15:06:02;94844.41;;;8.11;100.00
12626;BME280;6378;42.684;23.372;2022-12-15T15:08:50;94842.88;;;8.10;100.00
12626;BME280;6378;42.684;23.372;2022-12-15T15:11:34;94855.50;;;8.10;100.00
12626;BME280;6378;42.684;23.372;2022-12-15T15:14:07;94850.88;;;7.98;100.00
12626;BME280;6378;42.684;23.372;2022-12-15T15:16:33;94865.69;;;7.71;100.00
12626;BME280;6378;42.684;23.372;2022-12-15T15:19:02;94861.94;;;7.52;100.00
12626;BME280;6378;42.684;23.372;2022-12-15T15:21:29;94862.88;;;7.35;100.00
12626;BME280;6378;42.684;23.372;2022-12-15T15:26:36;94876.53;;;7.21;100.00
12626;BME280;6378;42.684;23.372;2022-12-15T15:29:03;94868.00;;;7.07;100.00
12626;BME280;6378;42.684;23.372;2022-12-15T15:31:30;94880.91;;;7.05;100.00
12626;BME280;6378;42.684;23.372;2022-12-15T15:33:58;94884.56;;;7.01;100.00
12626;BME280;6378;42.684;23.372;2022-12-15T15:36:37;94884.94;;;7.11;100.00
12626;BME280;6378;42.684;23.372;2022-12-15T15:39:11;94891.59;;;7.05;100.00
12626;BME280;6378;42.684;23.372;2022-12-15T15:41:37;94887.81;;;7.06;100.00
12626;BME280;6378;42.684;23.372;2022-12-15T15:44:11;94886.50;;;6.91;100.00
12626;BME280;6378;42.684;23.372;2022-12-15T15:46:58;94879.25;;;6.92;100.00
12626;BME280;6378;42.684;23.372;2022-12-15T15:49:24;94877.47;;;6.75;100.00